ATL weather

Hartsfield Jackson Atlanta International Airport
Atlanta, Georgia, United States

Public forecast

Using degrees Fahrenheit for public forecast. Weather courtesy of forecast.io.

METAR (pilot weather report)

Retrieved 2018/09/20 07:52 UTC (43 minutes ago):

KATL 200752Z 00000KT 10SM FEW100 24/18 A3005 RMK AO2 SLP164 T02440178

TAF (pilot weather forecast)

Retrieved 2018/09/20 06:28 UTC (2 hours ago):

TAF KATL 200525Z 2006/2112 09003KT P6SM FEW070 FM201700 11007KT P6SM SCT060 FM210100 12006KT P6SM FEW250